sensor_id;sensor_type;location;lat;lon;timestamp;pressure;altitude;pressure_sealevel;temperature;humidity
8627;BME280;4351;51.422;6.794;2023-02-02T00:00:22;100311.25;;;7.43;100.00
8627;BME280;4351;51.422;6.794;2023-02-02T00:02:50;100294.69;;;7.51;100.00
8627;BME280;4351;51.422;6.794;2023-02-02T00:05:18;100298.16;;;7.53;100.00
8627;BME280;4351;51.422;6.794;2023-02-02T00:07:46;100285.53;;;7.55;100.00
8627;BME280;4351;51.422;6.794;2023-02-02T00:10:14;100263.22;;;7.54;100.00
8627;BME280;4351;51.422;6.794;2023-02-02T00:12:43;100268.47;;;7.56;100.00
8627;BME280;4351;51.422;6.794;2023-02-02T00:15:11;100227.00;;;7.62;100.00
8627;BME280;4351;51.422;6.794;2023-02-02T00:17:39;100204.63;;;7.93;100.00
8627;BME280;4351;51.422;6.794;2023-02-02T00:20:08;100219.19;;;7.73;100.00
8627;BME280;4351;51.422;6.794;2023-02-02T00:22:36;100217.56;;;7.54;100.00
8627;BME280;4351;51.422;6.794;2023-02-02T00:25:05;100220.06;;;7.57;100.00
8627;BME280;4351;51.422;6.794;2023-02-02T00:27:33;100217.38;;;7.57;100.00
8627;BME280;4351;51.422;6.794;2023-02-02T00:30:03;100223.00;;;7.53;100.00
8627;BME280;4351;51.422;6.794;2023-02-02T00:32:31;100218.25;;;7.58;100.00
8627;BME280;4351;51.422;6.794;2023-02-02T00:34:59;100224.41;;;7.60;100.00
8627;BME280;4351;51.422;6.794;2023-02-02T00:37:27;100231.59;;;7.43;100.00
8627;BME280;4351;51.422;6.794;2023-02-02T00:39:55;100209.94;;;7.46;100.00
8627;BME280;4351;51.422;6.794;2023-02-02T00:42:23;100209.28;;;7.59;100.00
8627;BME280;4351;51.422;6.794;2023-02-02T00:44:51;100209.44;;;7.56;100.00
8627;BME280;4351;51.422;6.794;2023-02-02T00:47:38;100192.09;;;7.62;100.00
8627;BME280;4351;51.422;6.794;2023-02-02T00:50:06;100197.81;;;7.55;100.00
8627;BME280;4351;51.422;6.794;2023-02-02T00:52:35;100193.31;;;7.56;100.00
8627;BME280;4351;51.422;6.794;2023-02-02T00:55:03;100185.75;;;7.79;100.00
8627;BME280;4351;51.422;6.794;2023-02-02T00:57:32;100183.63;;;7.53;100.00
8627;BME280;4351;51.422;6.794;2023-02-02T01:00:00;100175.25;;;7.90;100.00
8627;BME280;4351;51.422;6.794;2023-02-02T01:02:28;100169.63;;;7.79;100.00
8627;BME280;4351;51.422;6.794;2023-02-02T01:04:58;100180.16;;;7.67;100.00
8627;BME280;4351;51.422;6.794;2023-02-02T01:07:26;100167.25;;;7.58;100.00
8627;BME280;4351;51.422;6.794;2023-02-02T01:09:55;100174.88;;;7.17;100.00
8627;BME280;4351;51.422;6.794;2023-02-02T01:12:24;100162.25;;;7.19;100.00
8627;BME280;4351;51.422;6.794;2023-02-02T01:14:52;100139.72;;;7.22;100.00
8627;BME280;4351;51.422;6.794;2023-02-02T01:17:20;100123.47;;;7.25;100.00
8627;BME280;4351;51.422;6.794;2023-02-02T01:19:48;100113.88;;;7.21;100.00
8627;BME280;4351;51.422;6.794;2023-02-02T01:22:18;100099.06;;;7.13;100.00
8627;BME280;4351;51.422;6.794;2023-02-02T01:24:46;100084.44;;;7.03;100.00
8627;BME280;4351;51.422;6.794;2023-02-02T01:27:15;100056.59;;;7.06;100.00
8627;BME280;4351;51.422;6.794;2023-02-02T01:29:47;100009.41;;;7.18;100.00
8627;BME280;4351;51.422;6.794;2023-02-02T01:32:18;99987.25;;;7.14;100.00
8627;BME280;4351;51.422;6.794;2023-02-02T01:34:47;99962.75;;;7.20;100.00
8627;BME280;4351;51.422;6.794;2023-02-02T01:37:15;99918.97;;;7.20;100.00
8627;BME280;4351;51.422;6.794;2023-02-02T01:39:44;99891.19;;;7.21;100.00
8627;BME280;4351;51.422;6.794;2023-02-02T01:42:14;99865.13;;;7.23;100.00
8627;BME280;4351;51.422;6.794;2023-02-02T01:45:03;99825.78;;;7.23;100.00
8627;BME280;4351;51.422;6.794;2023-02-02T01:47:40;99796.75;;;7.30;100.00
8627;BME280;4351;51.422;6.794;2023-02-02T01:50:09;99775.28;;;7.30;100.00
8627;BME280;4351;51.422;6.794;2023-02-02T01:52:41;99745.66;;;7.32;100.00
8627;BME280;4351;51.422;6.794;2023-02-02T01:55:13;99738.47;;;7.32;100.00
8627;BME280;4351;51.422;6.794;2023-02-02T01:57:45;99714.16;;;7.21;100.00
8627;BME280;4351;51.422;6.794;2023-02-02T02:00:17;99697.47;;;7.30;100.00
8627;BME280;4351;51.422;6.794;2023-02-02T02:02:52;99675.44;;;7.25;100.00
8627;BME280;4351;51.422;6.794;2023-02-02T02:05:25;99656.72;;;7.38;100.00
8627;BME280;4351;51.422;6.794;2023-02-02T02:08:02;99647.56;;;7.28;100.00
8627;BME280;4351;51.422;6.794;2023-02-02T02:10:32;99624.66;;;7.22;100.00
8627;BME280;4351;51.422;6.794;2023-02-02T02:13:01;99605.97;;;7.20;100.00
8627;BME280;4351;51.422;6.794;2023-02-02T02:15:34;99614.25;;;7.17;100.00
8627;BME280;4351;51.422;6.794;2023-02-02T02:18:29;99610.47;;;7.20;100.00
8627;BME280;4351;51.422;6.794;2023-02-02T02:21:25;99581.34;;;7.28;100.00
8627;BME280;4351;51.422;6.794;2023-02-02T02:28:11;99559.50;;;7.34;100.00
8627;BME280;4351;51.422;6.794;2023-02-02T02:31:18;99562.66;;;7.27;100.00
8627;BME280;4351;51.422;6.794;2023-02-02T02:33:56;99564.09;;;7.32;100.00
8627;BME280;4351;51.422;6.794;2023-02-02T02:36:30;99564.94;;;7.33;100.00
8627;BME280;4351;51.422;6.794;2023-02-02T02:39:04;99565.38;;;7.40;100.00
8627;BME280;4351;51.422;6.794;2023-02-02T02:41:40;99580.78;;;7.23;100.00
8627;BME280;4351;51.422;6.794;2023-02-02T02:44:13;99568.63;;;7.45;100.00
8627;BME280;4351;51.422;6.794;2023-02-02T02:46:44;99575.81;;;7.44;100.00
8627;BME280;4351;51.422;6.794;2023-02-02T02:49:18;99586.03;;;7.39;100.00
8627;BME280;4351;51.422;6.794;2023-02-02T02:51:48;99589.06;;;7.33;100.00
8627;BME280;4351;51.422;6.794;2023-02-02T02:54:24;99612.78;;;7.26;100.00
8627;BME280;4351;51.422;6.794;2023-02-02T02:57:07;99625.53;;;7.22;100.00
8627;BME280;4351;51.422;6.794;2023-02-02T02:59:43;99650.53;;;7.23;100.00
8627;BME280;4351;51.422;6.794;2023-02-02T03:02:25;99689.72;;;7.11;100.00
8627;BME280;4351;51.422;6.794;2023-02-02T03:05:06;99693.75;;;7.04;100.00
8627;BME280;4351;51.422;6.794;2023-02-02T03:07:40;99719.78;;;7.16;100.00
8627;BME280;4351;51.422;6.794;2023-02-02T03:10:12;99720.28;;;7.23;100.00
8627;BME280;4351;51.422;6.794;2023-02-02T03:12:45;99729.97;;;7.26;100.00
8627;BME280;4351;51.422;6.794;2023-02-02T03:15:16;99728.69;;;7.31;100.00
8627;BME280;4351;51.422;6.794;2023-02-02T03:17:44;99738.56;;;7.16;100.00
8627;BME280;4351;51.422;6.794;2023-02-02T03:20:16;99719.22;;;7.26;100.00
8627;BME280;4351;51.422;6.794;2023-02-02T03:22:44;99708.50;;;7.26;100.00
8627;BME280;4351;51.422;6.794;2023-02-02T03:25:13;99693.28;;;7.26;100.00
8627;BME280;4351;51.422;6.794;2023-02-02T03:27:42;99697.56;;;7.29;100.00
8627;BME280;4351;51.422;6.794;2023-02-02T03:30:11;99695.44;;;7.34;100.00
8627;BME280;4351;51.422;6.794;2023-02-02T03:32:40;99683.53;;;7.53;100.00
8627;BME280;4351;51.422;6.794;2023-02-02T03:35:09;99673.13;;;7.33;100.00
8627;BME280;4351;51.422;6.794;2023-02-02T03:37:38;99664.31;;;7.31;100.00
8627;BME280;4351;51.422;6.794;2023-02-02T03:40:07;99668.16;;;7.27;100.00
8627;BME280;4351;51.422;6.794;2023-02-02T03:42:36;99668.63;;;7.34;100.00
8627;BME280;4351;51.422;6.794;2023-02-02T03:45:05;99670.94;;;7.26;100.00
8627;BME280;4351;51.422;6.794;2023-02-02T03:47:33;99669.16;;;7.54;100.00
8627;BME280;4351;51.422;6.794;2023-02-02T03:50:01;99664.59;;;7.41;100.00
8627;BME280;4351;51.422;6.794;2023-02-02T03:52:29;99673.22;;;7.32;100.00
8627;BME280;4351;51.422;6.794;2023-02-02T03:54:58;99690.19;;;7.18;100.00
8627;BME280;4351;51.422;6.794;2023-02-02T03:57:27;99693.94;;;7.30;100.00
8627;BME280;4351;51.422;6.794;2023-02-02T03:59:55;99703.59;;;7.32;100.00
8627;BME280;4351;51.422;6.794;2023-02-02T04:02:23;99712.22;;;7.23;100.00
8627;BME280;4351;51.422;6.794;2023-02-02T04:04:51;99731.94;;;7.22;100.00
8627;BME280;4351;51.422;6.794;2023-02-02T04:07:18;99747.75;;;7.27;100.00
8627;BME280;4351;51.422;6.794;2023-02-02T04:09:46;99734.72;;;7.35;100.00
8627;BME280;4351;51.422;6.794;2023-02-02T04:12:16;99736.81;;;7.44;100.00
8627;BME280;4351;51.422;6.794;2023-02-02T04:14:44;99716.59;;;7.53;100.00
8627;BME280;4351;51.422;6.794;2023-02-02T04:17:12;99717.09;;;7.45;100.00
8627;BME280;4351;51.422;6.794;2023-02-02T04:19:40;99706.06;;;7.35;100.00
8627;BME280;4351;51.422;6.794;2023-02-02T04:22:08;99707.31;;;7.44;100.00
8627;BME280;4351;51.422;6.794;2023-02-02T04:24:37;99714.81;;;7.39;100.00
8627;BME280;4351;51.422;6.794;2023-02-02T04:27:05;99700.41;;;7.40;100.00
8627;BME280;4351;51.422;6.794;2023-02-02T04:29:35;99704.63;;;7.44;100.00
8627;BME280;4351;51.422;6.794;2023-02-02T04:32:03;99708.38;;;7.42;100.00
8627;BME280;4351;51.422;6.794;2023-02-02T04:34:31;99717.09;;;7.31;100.00
8627;BME280;4351;51.422;6.794;2023-02-02T04:36:59;99717.19;;;7.44;100.00
8627;BME280;4351;51.422;6.794;2023-02-02T04:39:27;99715.00;;;7.36;100.00
8627;BME280;4351;51.422;6.794;2023-02-02T04:41:56;99726.00;;;7.31;100.00
8627;BME280;4351;51.422;6.794;2023-02-02T04:44:24;99726.31;;;7.41;100.00
8627;BME280;4351;51.422;6.794;2023-02-02T04:46:54;99718.72;;;7.48;100.00
8627;BME280;4351;51.422;6.794;2023-02-02T04:49:22;99706.38;;;7.45;100.00
8627;BME280;4351;51.422;6.794;2023-02-02T04:51:50;99719.56;;;7.48;100.00
8627;BME280;4351;51.422;6.794;2023-02-02T04:54:18;99726.47;;;7.53;100.00
8627;BME280;4351;51.422;6.794;2023-02-02T04:56:46;99750.81;;;7.50;100.00
8627;BME280;4351;51.422;6.794;2023-02-02T04:59:14;99749.66;;;7.54;100.00
8627;BME280;4351;51.422;6.794;2023-02-02T05:01:42;99756.16;;;7.64;100.00
8627;BME280;4351;51.422;6.794;2023-02-02T05:04:12;99743.72;;;7.63;100.00
8627;BME280;4351;51.422;6.794;2023-02-02T05:06:40;99745.81;;;7.58;100.00
8627;BME280;4351;51.422;6.794;2023-02-02T05:09:09;99750.44;;;7.56;100.00
8627;BME280;4351;51.422;6.794;2023-02-02T05:11:39;99744.88;;;7.59;100.00
8627;BME280;4351;51.422;6.794;2023-02-02T05:14:10;99755.03;;;7.54;100.00
8627;BME280;4351;51.422;6.794;2023-02-02T05:16:38;99750.78;;;7.64;100.00
8627;BME280;4351;51.422;6.794;2023-02-02T05:19:10;99749.56;;;7.55;100.00
8627;BME280;4351;51.422;6.794;2023-02-02T05:21:45;99735.09;;;7.58;100.00
8627;BME280;4351;51.422;6.794;2023-02-02T05:24:17;99744.97;;;7.57;100.00
8627;BME280;4351;51.422;6.794;2023-02-02T05:26:45;99746.59;;;7.60;100.00
8627;BME280;4351;51.422;6.794;2023-02-02T05:29:13;99746.28;;;7.65;100.00
8627;BME280;4351;51.422;6.794;2023-02-02T05:31:41;99753.13;;;7.56;100.00
8627;BME280;4351;51.422;6.794;2023-02-02T05:34:09;99758.31;;;7.59;100.00
8627;BME280;4351;51.422;6.794;2023-02-02T05:36:39;99756.06;;;7.80;100.00
8627;BME280;4351;51.422;6.794;2023-02-02T05:39:09;99755.78;;;7.70;100.00
8627;BME280;4351;51.422;6.794;2023-02-02T05:41:38;99760.00;;;7.60;100.00
8627;BME280;4351;51.422;6.794;2023-02-02T05:44:06;99764.97;;;7.66;100.00
8627;BME280;4351;51.422;6.794;2023-02-02T05:46:34;99754.31;;;7.79;100.00
8627;BME280;4351;51.422;6.794;2023-02-02T05:49:02;99753.44;;;7.79;100.00
8627;BME280;4351;51.422;6.794;2023-02-02T05:51:33;99748.06;;;7.79;100.00
8627;BME280;4351;51.422;6.794;2023-02-02T05:54:02;99761.72;;;7.76;100.00
8627;BME280;4351;51.422;6.794;2023-02-02T05:56:31;99770.94;;;7.72;100.00
8627;BME280;4351;51.422;6.794;2023-02-02T05:58:59;99771.00;;;7.85;100.00
8627;BME280;4351;51.422;6.794;2023-02-02T06:01:30;99774.16;;;7.91;100.00
8627;BME280;4351;51.422;6.794;2023-02-02T06:03:58;99760.22;;;7.99;100.00
8627;BME280;4351;51.422;6.794;2023-02-02T06:06:26;99776.63;;;7.94;100.00
8627;BME280;4351;51.422;6.794;2023-02-02T06:08:54;99780.69;;;7.87;100.00
8627;BME280;4351;51.422;6.794;2023-02-02T06:11:22;99769.25;;;7.98;100.00
8627;BME280;4351;51.422;6.794;2023-02-02T06:13:51;99764.47;;;7.89;100.00
8627;BME280;4351;51.422;6.794;2023-02-02T06:16:19;99766.69;;;7.82;100.00
8627;BME280;4351;51.422;6.794;2023-02-02T06:18:47;99773.41;;;7.89;100.00
8627;BME280;4351;51.422;6.794;2023-02-02T06:21:16;99773.44;;;8.02;100.00
8627;BME280;4351;51.422;6.794;2023-02-02T06:23:45;99790.63;;;8.00;100.00
8627;BME280;4351;51.422;6.794;2023-02-02T06:26:14;99790.97;;;8.08;100.00
8627;BME280;4351;51.422;6.794;2023-02-02T06:28:46;99788.03;;;7.98;100.00
8627;BME280;4351;51.422;6.794;2023-02-02T06:31:16;99795.81;;;7.88;100.00
8627;BME280;4351;51.422;6.794;2023-02-02T06:33:45;99794.66;;;7.92;100.00
8627;BME280;4351;51.422;6.794;2023-02-02T06:36:13;99795.22;;;7.98;100.00
8627;BME280;4351;51.422;6.794;2023-02-02T06:38:42;99796.19;;;7.97;100.00
8627;BME280;4351;51.422;6.794;2023-02-02T06:41:10;99814.31;;;7.93;100.00
8627;BME280;4351;51.422;6.794;2023-02-02T06:43:38;99826.13;;;7.90;100.00
8627;BME280;4351;51.422;6.794;2023-02-02T06:46:06;99835.06;;;7.76;100.00
8627;BME280;4351;51.422;6.794;2023-02-02T06:48:35;99831.59;;;7.89;100.00
8627;BME280;4351;51.422;6.794;2023-02-02T06:51:04;99831.50;;;7.90;100.00
8627;BME280;4351;51.422;6.794;2023-02-02T06:53:33;99843.00;;;7.92;100.00
8627;BME280;4351;51.422;6.794;2023-02-02T06:56:03;99844.16;;;7.88;100.00
8627;BME280;4351;51.422;6.794;2023-02-02T06:58:32;99849.25;;;7.93;100.00
8627;BME280;4351;51.422;6.794;2023-02-02T07:01:01;99856.25;;;7.96;100.00
8627;BME280;4351;51.422;6.794;2023-02-02T07:03:31;99860.09;;;7.91;100.00
8627;BME280;4351;51.422;6.794;2023-02-02T07:06:11;99856.88;;;8.14;100.00
8627;BME280;4351;51.422;6.794;2023-02-02T07:08:40;99861.69;;;8.09;100.00
8627;BME280;4351;51.422;6.794;2023-02-02T07:11:08;99863.25;;;7.98;100.00
8627;BME280;4351;51.422;6.794;2023-02-02T07:13:42;99869.16;;;8.03;100.00
8627;BME280;4351;51.422;6.794;2023-02-02T07:16:12;99872.44;;;7.79;100.00
8627;BME280;4351;51.422;6.794;2023-02-02T07:18:52;99868.91;;;7.93;100.00
8627;BME280;4351;51.422;6.794;2023-02-02T07:21:31;99878.13;;;7.89;100.00
8627;BME280;4351;51.422;6.794;2023-02-02T07:24:02;99874.53;;;8.03;100.00
8627;BME280;4351;51.422;6.794;2023-02-02T07:26:32;99886.53;;;8.12;100.00
8627;BME280;4351;51.422;6.794;2023-02-02T07:29:02;99868.84;;;8.23;100.00
8627;BME280;4351;51.422;6.794;2023-02-02T07:31:30;99892.59;;;8.01;100.00
8627;BME280;4351;51.422;6.794;2023-02-02T07:34:02;99906.13;;;7.85;100.00
8627;BME280;4351;51.422;6.794;2023-02-02T07:36:32;99905.91;;;7.88;100.00
8627;BME280;4351;51.422;6.794;2023-02-02T07:39:01;99889.44;;;8.09;100.00
8627;BME280;4351;51.422;6.794;2023-02-02T07:41:30;99899.00;;;7.99;100.00
8627;BME280;4351;51.422;6.794;2023-02-02T07:44:00;99892.03;;;7.96;100.00
8627;BME280;4351;51.422;6.794;2023-02-02T07:46:28;99896.31;;;7.99;100.00
8627;BME280;4351;51.422;6.794;2023-02-02T07:48:57;99901.50;;;8.02;100.00
8627;BME280;4351;51.422;6.794;2023-02-02T07:51:37;99914.94;;;8.02;100.00
8627;BME280;4351;51.422;6.794;2023-02-02T07:54:10;99904.31;;;8.00;100.00
8627;BME280;4351;51.422;6.794;2023-02-02T07:56:38;99910.41;;;7.88;100.00
8627;BME280;4351;51.422;6.794;2023-02-02T07:59:08;99915.03;;;8.00;100.00
8627;BME280;4351;51.422;6.794;2023-02-02T08:01:37;99912.06;;;7.90;100.00
8627;BME280;4351;51.422;6.794;2023-02-02T08:04:05;99930.09;;;7.88;100.00
8627;BME280;4351;51.422;6.794;2023-02-02T08:06:37;99916.38;;;8.22;100.00
8627;BME280;4351;51.422;6.794;2023-02-02T08:09:10;99919.91;;;8.08;100.00
8627;BME280;4351;51.422;6.794;2023-02-02T08:11:38;99920.56;;;8.12;100.00
8627;BME280;4351;51.422;6.794;2023-02-02T08:14:06;99934.69;;;8.01;100.00
8627;BME280;4351;51.422;6.794;2023-02-02T08:16:34;99929.69;;;8.24;100.00
8627;BME280;4351;51.422;6.794;2023-02-02T08:19:03;99922.22;;;8.00;100.00
8627;BME280;4351;51.422;6.794;2023-02-02T08:21:32;99928.91;;;8.36;100.00
8627;BME280;4351;51.422;6.794;2023-02-02T08:24:03;99932.28;;;8.25;100.00
8627;BME280;4351;51.422;6.794;2023-02-02T08:26:33;99945.06;;;8.07;100.00
8627;BME280;4351;51.422;6.794;2023-02-02T08:29:03;99944.97;;;8.09;100.00
8627;BME280;4351;51.422;6.794;2023-02-02T08:31:33;99945.44;;;8.01;100.00
8627;BME280;4351;51.422;6.794;2023-02-02T08:34:02;99943.91;;;8.26;100.00
8627;BME280;4351;51.422;6.794;2023-02-02T08:36:31;99948.91;;;8.03;100.00
8627;BME280;4351;51.422;6.794;2023-02-02T08:39:03;99962.81;;;7.95;100.00
8627;BME280;4351;51.422;6.794;2023-02-02T08:41:32;99960.88;;;7.82;100.00
8627;BME280;4351;51.422;6.794;2023-02-02T08:44:00;99971.16;;;7.90;100.00
8627;BME280;4351;51.422;6.794;2023-02-02T08:46:28;99975.19;;;7.83;100.00
8627;BME280;4351;51.422;6.794;2023-02-02T08:48:57;99987.63;;;7.84;100.00
8627;BME280;4351;51.422;6.794;2023-02-02T08:51:25;99982.09;;;7.87;100.00
8627;BME280;4351;51.422;6.794;2023-02-02T08:53:53;99978.81;;;7.82;100.00
8627;BME280;4351;51.422;6.794;2023-02-02T08:56:23;99982.38;;;7.82;100.00
8627;BME280;4351;51.422;6.794;2023-02-02T08:58:53;99985.06;;;7.82;100.00
8627;BME280;4351;51.422;6.794;2023-02-02T09:01:22;99979.69;;;7.82;100.00
8627;BME280;4351;51.422;6.794;2023-02-02T09:03:52;99983.53;;;7.78;100.00
8627;BME280;4351;51.422;6.794;2023-02-02T09:06:21;99984.75;;;7.73;100.00
8627;BME280;4351;51.422;6.794;2023-02-02T09:08:53;99992.84;;;7.87;100.00
8627;BME280;4351;51.422;6.794;2023-02-02T09:11:22;99996.19;;;7.76;100.00
8627;BME280;4351;51.422;6.794;2023-02-02T09:13:53;99999.63;;;7.93;100.00
8627;BME280;4351;51.422;6.794;2023-02-02T09:16:22;100003.47;;;7.89;100.00
8627;BME280;4351;51.422;6.794;2023-02-02T09:18:51;100009.13;;;7.84;100.00
8627;BME280;4351;51.422;6.794;2023-02-02T09:21:19;100019.03;;;8.13;100.00
8627;BME280;4351;51.422;6.794;2023-02-02T09:23:49;100016.16;;;8.01;100.00
8627;BME280;4351;51.422;6.794;2023-02-02T09:26:20;100022.66;;;7.82;100.00
8627;BME280;4351;51.422;6.794;2023-02-02T09:28:52;100035.38;;;7.79;100.00
8627;BME280;4351;51.422;6.794;2023-02-02T09:31:20;100061.47;;;7.77;100.00
8627;BME280;4351;51.422;6.794;2023-02-02T09:33:49;100065.66;;;7.66;100.00
8627;BME280;4351;51.422;6.794;2023-02-02T09:36:18;100070.75;;;7.71;100.00
8627;BME280;4351;51.422;6.794;2023-02-02T09:38:47;100076.22;;;7.69;100.00
8627;BME280;4351;51.422;6.794;2023-02-02T09:41:39;100080.31;;;7.91;100.00
8627;BME280;4351;51.422;6.794;2023-02-02T09:44:23;100087.63;;;7.73;100.00
8627;BME280;4351;51.422;6.794;2023-02-02T09:47:07;100084.94;;;7.73;100.00
8627;BME280;4351;51.422;6.794;2023-02-02T09:49:51;100084.97;;;7.88;100.00
8627;BME280;4351;51.422;6.794;2023-02-02T09:52:25;100069.69;;;8.04;100.00
8627;BME280;4351;51.422;6.794;2023-02-02T09:54:59;100072.53;;;7.87;100.00
8627;BME280;4351;51.422;6.794;2023-02-02T09:57:34;100080.44;;;7.74;100.00
8627;BME280;4351;51.422;6.794;2023-02-02T10:00:18;100085.09;;;8.01;100.00
8627;BME280;4351;51.422;6.794;2023-02-02T10:02:55;100059.06;;;8.18;100.00
8627;BME280;4351;51.422;6.794;2023-02-02T10:05:28;100046.94;;;8.10;100.00
8627;BME280;4351;51.422;6.794;2023-02-02T10:08:00;100062.66;;;7.87;100.00
8627;BME280;4351;51.422;6.794;2023-02-02T10:10:33;100067.28;;;8.00;100.00
8627;BME280;4351;51.422;6.794;2023-02-02T10:13:10;100072.28;;;8.06;100.00
8627;BME280;4351;51.422;6.794;2023-02-02T10:15:49;100041.78;;;8.51;100.00
8627;BME280;4351;51.422;6.794;2023-02-02T10:18:28;100038.88;;;8.10;100.00
8627;BME280;4351;51.422;6.794;2023-02-02T10:21:01;100041.78;;;8.07;100.00
8627;BME280;4351;51.422;6.794;2023-02-02T10:23:33;100054.25;;;8.08;100.00
8627;BME280;4351;51.422;6.794;2023-02-02T10:26:05;100076.13;;;8.02;100.00
8627;BME280;4351;51.422;6.794;2023-02-02T10:28:41;100076.06;;;8.18;100.00
8627;BME280;4351;51.422;6.794;2023-02-02T10:31:21;100070.97;;;8.28;100.00
8627;BME280;4351;51.422;6.794;2023-02-02T10:34:10;100077.00;;;8.17;100.00
8627;BME280;4351;51.422;6.794;2023-02-02T10:36:55;100080.94;;;8.26;100.00
8627;BME280;4351;51.422;6.794;2023-02-02T10:39:45;100082.47;;;8.15;100.00
8627;BME280;4351;51.422;6.794;2023-02-02T10:42:26;100085.00;;;8.33;100.00
8627;BME280;4351;51.422;6.794;2023-02-02T10:44:59;100101.06;;;8.19;100.00
8627;BME280;4351;51.422;6.794;2023-02-02T10:47:32;100113.47;;;8.36;100.00
8627;BME280;4351;51.422;6.794;2023-02-02T10:50:14;100124.59;;;8.30;100.00
8627;BME280;4351;51.422;6.794;2023-02-02T10:52:46;100133.16;;;8.36;100.00
8627;BME280;4351;51.422;6.794;2023-02-02T10:55:22;100123.38;;;8.35;100.00
8627;BME280;4351;51.422;6.794;2023-02-02T10:58:04;100124.81;;;8.41;100.00
8627;BME280;4351;51.422;6.794;2023-02-02T11:00:47;100134.19;;;8.34;100.00
8627;BME280;4351;51.422;6.794;2023-02-02T11:03:33;100151.41;;;8.31;100.00
8627;BME280;4351;51.422;6.794;2023-02-02T11:06:03;100157.31;;;8.22;100.00
8627;BME280;4351;51.422;6.794;2023-02-02T11:08:51;100161.84;;;8.36;100.00
8627;BME280;4351;51.422;6.794;2023-02-02T11:11:30;100166.78;;;8.44;100.00
8627;BME280;4351;51.422;6.794;2023-02-02T11:14:02;100174.06;;;8.42;100.00
8627;BME280;4351;51.422;6.794;2023-02-02T11:16:31;100173.09;;;8.43;100.00
8627;BME280;4351;51.422;6.794;2023-02-02T11:19:23;100167.94;;;8.39;100.00
8627;BME280;4351;51.422;6.794;2023-02-02T11:21:55;100172.25;;;8.42;100.00
8627;BME280;4351;51.422;6.794;2023-02-02T11:24:26;100171.00;;;8.33;100.00
8627;BME280;4351;51.422;6.794;2023-02-02T11:26:58;100186.84;;;8.38;100.00
8627;BME280;4351;51.422;6.794;2023-02-02T11:29:30;100186.47;;;8.44;100.00
8627;BME280;4351;51.422;6.794;2023-02-02T11:32:17;100193.66;;;8.44;100.00
8627;BME280;4351;51.422;6.794;2023-02-02T11:34:47;100183.03;;;8.57;100.00
8627;BME280;4351;51.422;6.794;2023-02-02T11:37:20;100193.94;;;8.54;100.00
8627;BME280;4351;51.422;6.794;2023-02-02T11:39:49;100200.75;;;8.45;100.00
8627;BME280;4351;51.422;6.794;2023-02-02T11:42:21;100190.97;;;8.44;100.00
8627;BME280;4351;51.422;6.794;2023-02-02T11:44:51;100195.03;;;8.51;100.00
8627;BME280;4351;51.422;6.794;2023-02-02T11:47:24;100189.72;;;8.49;100.00
8627;BME280;4351;51.422;6.794;2023-02-02T11:49:56;100189.34;;;8.56;100.00
8627;BME280;4351;51.422;6.794;2023-02-02T11:52:28;100201.06;;;8.40;100.00
8627;BME280;4351;51.422;6.794;2023-02-02T11:55:00;100195.19;;;8.64;100.00
8627;BME280;4351;51.422;6.794;2023-02-02T11:57:29;100193.19;;;8.51;100.00
8627;BME280;4351;51.422;6.794;2023-02-02T12:00:16;100194.69;;;8.57;100.00
8627;BME280;4351;51.422;6.794;2023-02-02T12:02:45;100202.00;;;8.70;100.00
8627;BME280;4351;51.422;6.794;2023-02-02T12:05:33;100223.41;;;8.40;100.00
8627;BME280;4351;51.422;6.794;2023-02-02T12:08:01;100219.09;;;8.38;100.00
8627;BME280;4351;51.422;6.794;2023-02-02T12:10:35;100222.97;;;8.48;100.00
8627;BME280;4351;51.422;6.794;2023-02-02T12:13:09;100222.13;;;8.62;100.00
8627;BME280;4351;51.422;6.794;2023-02-02T12:15:46;100235.00;;;8.57;100.00
8627;BME280;4351;51.422;6.794;2023-02-02T12:18:34;100230.03;;;8.66;100.00
8627;BME280;4351;51.422;6.794;2023-02-02T12:21:12;100243.69;;;8.46;100.00
8627;BME280;4351;51.422;6.794;2023-02-02T12:23:54;100237.50;;;8.60;100.00
8627;BME280;4351;51.422;6.794;2023-02-02T12:26:28;100235.19;;;8.69;100.00
8627;BME280;4351;51.422;6.794;2023-02-02T12:29:20;100238.88;;;8.68;100.00
8627;BME280;4351;51.422;6.794;2023-02-02T12:32:16;100248.09;;;8.64;100.00
8627;BME280;4351;51.422;6.794;2023-02-02T12:34:58;100255.19;;;8.65;100.00
8627;BME280;4351;51.422;6.794;2023-02-02T12:37:43;100260.66;;;8.63;100.00
8627;BME280;4351;51.422;6.794;2023-02-02T12:40:23;100269.97;;;8.57;100.00
8627;BME280;4351;51.422;6.794;2023-02-02T12:43:06;100275.69;;;8.51;100.00
8627;BME280;4351;51.422;6.794;2023-02-02T12:45:47;100277.41;;;8.52;100.00
8627;BME280;4351;51.422;6.794;2023-02-02T12:48:29;100281.50;;;8.59;100.00
8627;BME280;4351;51.422;6.794;2023-02-02T12:51:10;100286.09;;;8.57;100.00
8627;BME280;4351;51.422;6.794;2023-02-02T12:54:10;100275.91;;;8.62;100.00
8627;BME280;4351;51.422;6.794;2023-02-02T12:57:08;100278.59;;;8.62;100.00
8627;BME280;4351;51.422;6.794;2023-02-02T13:02:56;100275.28;;;8.73;100.00
8627;BME280;4351;51.422;6.794;2023-02-02T13:05:39;100277.69;;;8.78;100.00
8627;BME280;4351;51.422;6.794;2023-02-02T13:08:13;100272.84;;;8.69;100.00
8627;BME280;4351;51.422;6.794;2023-02-02T13:10:46;100294.75;;;8.62;100.00
8627;BME280;4351;51.422;6.794;2023-02-02T13:13:17;100307.03;;;8.67;100.00
8627;BME280;4351;51.422;6.794;2023-02-02T13:15:49;100311.06;;;8.59;100.00
8627;BME280;4351;51.422;6.794;2023-02-02T13:18:22;100308.28;;;8.61;100.00
8627;BME280;4351;51.422;6.794;2023-02-02T13:20:54;100316.50;;;8.58;100.00
8627;BME280;4351;51.422;6.794;2023-02-02T13:23:27;100311.56;;;8.66;100.00
8627;BME280;4351;51.422;6.794;2023-02-02T13:26:03;100309.34;;;8.42;100.00
8627;BME280;4351;51.422;6.794;2023-02-02T13:28:37;100316.78;;;8.53;100.00
8627;BME280;4351;51.422;6.794;2023-02-02T13:31:14;100317.91;;;8.49;100.00
8627;BME280;4351;51.422;6.794;2023-02-02T13:33:52;100310.56;;;8.36;100.00
8627;BME280;4351;51.422;6.794;2023-02-02T13:36:25;100310.53;;;8.53;100.00
8627;BME280;4351;51.422;6.794;2023-02-02T13:38:58;100312.34;;;8.68;100.00
8627;BME280;4351;51.422;6.794;2023-02-02T13:41:29;100319.69;;;8.81;100.00
8627;BME280;4351;51.422;6.794;2023-02-02T13:44:01;100316.69;;;8.55;100.00
8627;BME280;4351;51.422;6.794;2023-02-02T13:46:35;100329.97;;;8.42;100.00
8627;BME280;4351;51.422;6.794;2023-02-02T13:49:09;100337.41;;;8.53;100.00
8627;BME280;4351;51.422;6.794;2023-02-02T13:51:50;100331.69;;;8.43;100.00